createdAt,value
2022-10-06T00:00:04.498Z,98.30
2022-10-06T00:02:34.125Z,99.01
2022-10-06T00:05:00.685Z,98.84
2022-10-06T00:07:27.246Z,99.04
2022-10-06T00:09:53.764Z,99.57
2022-10-06T00:12:20.328Z,99.61
2022-10-06T00:14:48.225Z,99.58
2022-10-06T00:17:14.775Z,99.20
2022-10-06T00:19:41.317Z,100.00
2022-10-06T00:22:07.875Z,99.96
2022-10-06T00:24:34.399Z,99.68
2022-10-06T00:27:01.353Z,99.97
2022-10-06T00:29:27.924Z,99.64
2022-10-06T00:31:55.848Z,100.00
2022-10-06T00:34:22.440Z,100.00
2022-10-06T00:36:49.018Z,100.00
2022-10-06T00:39:15.522Z,100.00
2022-10-06T00:41:42.063Z,99.99
2022-10-06T00:44:08.603Z,100.00
2022-10-06T00:46:40.163Z,100.00
2022-10-06T00:49:14.229Z,100.00
2022-10-06T00:51:44.516Z,100.00
2022-10-06T00:54:11.647Z,100.00
2022-10-06T00:56:38.851Z,100.00
2022-10-06T00:59:05.867Z,100.00
2022-10-06T01:01:33.644Z,100.00
2022-10-06T01:04:06.629Z,100.00
2022-10-06T01:06:42.736Z,100.00
2022-10-06T01:09:09.300Z,100.00
2022-10-06T01:11:36.150Z,100.00
2022-10-06T01:14:02.689Z,100.00
2022-10-06T01:16:32.089Z,99.88
2022-10-06T01:18:59.036Z,99.68
2022-10-06T01:21:31.136Z,99.72
2022-10-06T01:24:01.088Z,100.00
2022-10-06T01:26:29.098Z,100.00
2022-10-06T01:28:55.780Z,100.00
2022-10-06T01:31:22.897Z,100.00
2022-10-06T01:33:51.751Z,100.00
2022-10-06T01:36:18.594Z,99.99
2022-10-06T01:38:45.115Z,100.00
2022-10-06T01:41:13.164Z,100.00
2022-10-06T01:43:39.784Z,100.00
2022-10-06T01:46:06.389Z,100.00
2022-10-06T01:48:35.115Z,100.00
2022-10-06T01:51:01.685Z,100.00
2022-10-06T01:53:28.200Z,100.00
2022-10-06T01:55:57.886Z,100.00
2022-10-06T01:58:26.056Z,100.00
2022-10-06T02:00:52.956Z,100.00
2022-10-06T02:03:19.515Z,100.00
2022-10-06T02:05:46.058Z,100.00
2022-10-06T02:08:12.588Z,99.81
2022-10-06T02:10:39.124Z,99.89
2022-10-06T02:13:05.687Z,99.84
2022-10-06T02:15:33.593Z,99.57
2022-10-06T02:18:00.189Z,99.30
2022-10-06T02:20:26.889Z,99.19
2022-10-06T02:22:53.399Z,99.70
2022-10-06T02:25:20.048Z,99.73
2022-10-06T02:27:46.637Z,99.62
2022-10-06T02:30:13.315Z,99.62
2022-10-06T02:32:42.229Z,99.10
2022-10-06T02:35:09.745Z,99.03
2022-10-06T02:37:36.264Z,98.78
2022-10-06T02:40:02.836Z,98.95
2022-10-06T02:42:29.374Z,99.00
2022-10-06T02:44:55.889Z,99.43
2022-10-06T02:47:22.434Z,99.11
2022-10-06T02:49:50.354Z,98.82
2022-10-06T02:52:17.101Z,98.70
2022-10-06T02:54:43.636Z,99.10
2022-10-06T02:57:10.175Z,99.20
2022-10-06T02:59:36.706Z,99.19
2022-10-06T03:02:03.725Z,99.38
2022-10-06T03:04:30.321Z,99.21
2022-10-06T03:06:58.277Z,99.45
2022-10-06T03:09:24.993Z,99.59
2022-10-06T03:11:51.676Z,100.00
2022-10-06T03:14:21.812Z,100.00
2022-10-06T03:16:49.057Z,100.00
2022-10-06T03:19:15.663Z,100.00
2022-10-06T03:21:43.608Z,100.00
2022-10-06T03:24:12.152Z,100.00
2022-10-06T03:26:40.466Z,100.00
2022-10-06T03:29:11.295Z,100.00
2022-10-06T03:31:38.854Z,100.00
2022-10-06T03:34:05.834Z,99.93
2022-10-06T03:36:33.881Z,99.75
2022-10-06T03:39:01.294Z,100.00
2022-10-06T03:41:31.629Z,100.00
2022-10-06T03:43:59.614Z,100.00
2022-10-06T03:46:28.662Z,100.00
2022-10-06T03:48:55.622Z,100.00
2022-10-06T03:51:24.840Z,100.00
2022-10-06T03:53:51.950Z,100.00
2022-10-06T03:56:20.465Z,100.00
2022-10-06T03:58:50.920Z,100.00
2022-10-06T04:01:25.020Z,100.00
2022-10-06T04:03:53.771Z,100.00
2022-10-06T04:06:20.480Z,100.00
2022-10-06T04:08:49.654Z,100.00
2022-10-06T04:11:18.520Z,100.00
2022-10-06T04:13:45.249Z,100.00
2022-10-06T04:16:15.656Z,100.00
2022-10-06T04:18:43.625Z,100.00
2022-10-06T04:21:10.556Z,99.99
2022-10-06T04:23:37.066Z,99.72
2022-10-06T04:26:06.027Z,100.00
2022-10-06T04:28:33.651Z,99.87
2022-10-06T04:31:01.627Z,100.00
2022-10-06T04:33:29.664Z,100.00
2022-10-06T04:35:57.400Z,100.00
2022-10-06T04:38:24.013Z,99.91
2022-10-06T04:40:50.587Z,99.60
2022-10-06T04:43:17.149Z,99.64
2022-10-06T04:45:43.714Z,99.92
2022-10-06T04:48:10.346Z,99.95
2022-10-06T04:50:38.237Z,99.89
2022-10-06T04:53:04.837Z,99.94
2022-10-06T04:55:31.355Z,99.87
2022-10-06T04:57:57.919Z,99.84
2022-10-06T05:00:24.469Z,99.50
2022-10-06T05:02:53.091Z,100.00
2022-10-06T05:05:19.620Z,100.00
2022-10-06T05:07:47.560Z,99.84
2022-10-06T05:10:14.244Z,99.60
2022-10-06T05:12:40.796Z,99.26
2022-10-06T05:15:08.630Z,99.28
2022-10-06T05:17:35.195Z,99.15
2022-10-06T05:20:01.767Z,99.07
2022-10-06T05:22:28.292Z,99.08
2022-10-06T05:24:56.160Z,99.27
2022-10-06T05:27:22.729Z,99.12
2022-10-06T05:29:49.252Z,98.67
2022-10-06T05:32:15.783Z,98.73
2022-10-06T05:34:42.306Z,98.30
2022-10-06T05:37:08.834Z,98.66
2022-10-06T05:39:35.363Z,98.58
2022-10-06T05:42:03.403Z,98.95
2022-10-06T05:44:29.921Z,98.92
2022-10-06T05:46:56.457Z,98.53
2022-10-06T05:49:22.959Z,98.74
2022-10-06T05:51:49.829Z,98.83
2022-10-06T05:54:16.363Z,98.51
2022-10-06T05:56:42.895Z,99.03
2022-10-06T05:59:10.798Z,98.87
2022-10-06T06:01:39.189Z,99.41
2022-10-06T06:04:07.646Z,99.67
2022-10-06T06:06:36.071Z,99.65
2022-10-06T06:09:05.303Z,99.24
2022-10-06T06:11:31.856Z,99.17
2022-10-06T06:13:59.607Z,99.04
2022-10-06T06:16:29.260Z,98.57
2022-10-06T06:18:55.879Z,98.61
2022-10-06T06:21:22.783Z,98.19
2022-10-06T06:23:49.786Z,98.48
2022-10-06T06:26:18.537Z,97.76
2022-10-06T06:28:45.778Z,97.36
2022-10-06T06:31:19.049Z,97.19
2022-10-06T06:33:50.401Z,97.33
2022-10-06T06:36:19.478Z,97.00
2022-10-06T06:38:47.622Z,96.30
2022-10-06T06:41:16.075Z,95.53
2022-10-06T06:43:42.751Z,95.30
2022-10-06T06:46:09.721Z,96.56
2022-10-06T06:48:36.318Z,95.98
2022-10-06T06:51:04.908Z,95.55
2022-10-06T06:53:31.840Z,94.68
2022-10-06T06:55:58.344Z,94.64
2022-10-06T06:58:25.335Z,94.90
2022-10-06T07:00:52.002Z,94.85
2022-10-06T07:03:32.939Z,94.67
2022-10-06T07:06:11.783Z,95.60
2022-10-06T07:08:40.588Z,94.83
2022-10-06T07:11:14.852Z,93.99
2022-10-06T07:13:41.974Z,93.04
2022-10-06T07:16:10.967Z,93.86
2022-10-06T07:18:37.572Z,92.80
2022-10-06T07:21:04.128Z,92.37
2022-10-06T07:23:32.084Z,91.74
2022-10-06T07:25:58.593Z,92.33
2022-10-06T07:28:25.176Z,92.66
2022-10-06T07:30:51.732Z,92.28
2022-10-06T07:33:18.425Z,93.18
2022-10-06T07:35:44.934Z,91.97
2022-10-06T07:38:11.456Z,90.83
2022-10-06T07:40:46.368Z,90.35
2022-10-06T07:43:22.476Z,89.63
2022-10-06T07:45:49.080Z,89.39
2022-10-06T07:48:17.205Z,88.36
2022-10-06T07:50:44.916Z,88.42
2022-10-06T07:53:11.593Z,88.35
2022-10-06T07:55:42.231Z,88.76
2022-10-06T07:58:12.199Z,88.92
2022-10-06T08:00:38.759Z,87.79
2022-10-06T08:03:05.397Z,87.89
2022-10-06T08:05:31.944Z,87.28
2022-10-06T08:07:58.612Z,86.73
2022-10-06T08:10:25.257Z,86.22
2022-10-06T08:12:53.213Z,85.16
2022-10-06T08:15:19.807Z,83.96
2022-10-06T08:17:46.356Z,85.36
2022-10-06T08:20:13.572Z,85.49
2022-10-06T08:22:40.580Z,84.49
2022-10-06T08:25:08.724Z,84.07
2022-10-06T08:27:36.650Z,84.24
2022-10-06T08:30:05.855Z,85.46
2022-10-06T08:32:33.084Z,85.67
2022-10-06T08:34:59.620Z,85.77
2022-10-06T08:37:26.160Z,85.96
2022-10-06T08:39:53.812Z,86.15
2022-10-06T08:42:28.407Z,85.65
2022-10-06T08:45:05.445Z,84.88
2022-10-06T08:47:35.522Z,83.77
2022-10-06T08:50:04.921Z,84.01
2022-10-06T08:52:44.603Z,83.72
2022-10-06T08:55:24.752Z,83.57
2022-10-06T08:58:04.100Z,82.42
2022-10-06T09:00:32.671Z,82.13
2022-10-06T09:03:00.559Z,82.00
2022-10-06T09:05:27.896Z,80.57
2022-10-06T09:08:10.322Z,80.71
2022-10-06T09:10:44.234Z,80.57
2022-10-06T09:13:20.967Z,80.51
2022-10-06T09:15:55.542Z,80.49
2022-10-06T09:18:49.445Z,81.07
2022-10-06T09:21:17.901Z,80.41
2022-10-06T09:23:50.238Z,80.31
2022-10-06T09:26:19.096Z,78.65
2022-10-06T09:28:45.690Z,78.46
2022-10-06T09:31:22.188Z,77.17
2022-10-06T09:33:50.957Z,77.93
2022-10-06T09:36:17.577Z,76.96
2022-10-06T09:38:50.335Z,77.66
2022-10-06T09:41:16.924Z,76.52
2022-10-06T09:43:52.346Z,75.70
2022-10-06T09:46:23.540Z,75.71
2022-10-06T09:49:06.207Z,73.89
2022-10-06T09:51:33.188Z,73.96
2022-10-06T09:54:08.224Z,75.09
2022-10-06T09:56:34.786Z,74.56
2022-10-06T09:59:01.381Z,74.02
2022-10-06T10:01:30.535Z,74.29
2022-10-06T10:04:19.534Z,74.16
2022-10-06T10:06:46.183Z,72.76
2022-10-06T10:09:29.628Z,73.20
2022-10-06T10:12:11.357Z,71.65
2022-10-06T10:14:38.413Z,70.63
2022-10-06T10:17:13.548Z,70.88
2022-10-06T10:19:40.173Z,71.29
2022-10-06T10:22:16.694Z,70.60
2022-10-06T10:24:52.226Z,70.21
2022-10-06T10:27:22.709Z,71.82
2022-10-06T10:29:59.067Z,70.73
2022-10-06T10:32:56.597Z,73.43
2022-10-06T10:35:27.231Z,72.85
2022-10-06T10:37:59.910Z,71.98
2022-10-06T10:40:37.233Z,72.21
2022-10-06T10:43:14.064Z,71.96
2022-10-06T10:45:45.909Z,72.28
2022-10-06T10:48:20.919Z,71.98
2022-10-06T10:50:56.172Z,71.02
2022-10-06T10:53:28.979Z,71.59
2022-10-06T10:55:56.650Z,72.50
2022-10-06T10:58:30.477Z,72.04
2022-10-06T11:01:02.940Z,72.78
2022-10-06T11:03:31.195Z,72.40
2022-10-06T11:06:17.843Z,74.73
2022-10-06T11:08:50.017Z,75.11
2022-10-06T11:11:28.363Z,76.23
2022-10-06T11:13:59.699Z,75.90
2022-10-06T11:16:40.825Z,75.62
2022-10-06T11:19:22.796Z,76.21
2022-10-06T11:21:54.391Z,75.19
2022-10-06T11:24:30.715Z,76.16
2022-10-06T11:27:15.566Z,74.75
2022-10-06T11:29:54.245Z,73.99
2022-10-06T11:32:27.131Z,73.92
2022-10-06T11:34:55.676Z,72.88
2022-10-06T11:37:35.683Z,72.10
2022-10-06T11:40:24.575Z,73.30
2022-10-06T11:43:00.583Z,73.20
2022-10-06T11:45:33.384Z,73.38
2022-10-06T11:48:18.602Z,75.38
2022-10-06T11:50:46.561Z,75.55
2022-10-06T11:53:39.653Z,74.74
2022-10-06T11:56:37.415Z,75.86
2022-10-06T11:59:25.893Z,74.88
2022-10-06T12:01:57.145Z,74.28
2022-10-06T12:04:24.824Z,75.89
2022-10-06T12:07:01.387Z,74.50
2022-10-06T12:09:51.721Z,73.30
2022-10-06T12:13:05.712Z,72.97
2022-10-06T12:17:06.095Z,72.77
2022-10-06T12:19:06.276Z,70.43
2022-10-06T12:21:42.301Z,70.43
2022-10-06T12:24:25.151Z,69.01
2022-10-06T12:26:59.548Z,68.57
2022-10-06T12:29:39.438Z,69.09
2022-10-06T12:32:17.675Z,69.33
2022-10-06T12:34:57.652Z,70.69
2022-10-06T12:37:40.465Z,70.60
2022-10-06T12:40:44.318Z,69.45
2022-10-06T12:43:55.093Z,69.68
2022-10-06T12:46:32.843Z,70.71
2022-10-06T12:49:14.304Z,70.79
2022-10-06T12:51:42.435Z,70.55
2022-10-06T12:54:16.452Z,70.43
2022-10-06T12:56:44.067Z,70.35
2022-10-06T12:59:19.586Z,69.82
2022-10-06T13:01:46.602Z,69.78
2022-10-06T13:04:32.365Z,69.32
2022-10-06T13:06:59.023Z,70.72
2022-10-06T13:09:25.702Z,67.51
2022-10-06T13:11:52.269Z,67.24
2022-10-06T13:14:20.185Z,66.47
2022-10-06T13:16:48.300Z,65.22
2022-10-06T13:19:17.720Z,66.07
2022-10-06T13:21:45.092Z,66.75
2022-10-06T13:24:13.302Z,66.06
2022-10-06T13:26:41.304Z,66.90
2022-10-06T13:29:18.466Z,66.62
2022-10-06T13:31:52.860Z,65.77
2022-10-06T13:34:27.571Z,66.78
2022-10-06T13:36:54.679Z,65.09
2022-10-06T13:39:23.356Z,64.78
2022-10-06T13:41:52.333Z,63.94
2022-10-06T13:44:28.926Z,63.80
2022-10-06T13:47:00.303Z,64.11
2022-10-06T13:49:29.257Z,64.69
2022-10-06T13:51:59.383Z,64.19
2022-10-06T13:54:28.456Z,63.91
2022-10-06T13:56:55.110Z,65.06
2022-10-06T13:59:35.235Z,64.78
2022-10-06T14:02:22.306Z,65.22
2022-10-06T14:05:22.974Z,64.11
2022-10-06T14:07:50.461Z,64.35
2022-10-06T14:10:18.629Z,63.20
2022-10-06T14:12:46.021Z,62.91
2022-10-06T14:15:18.700Z,63.92
2022-10-06T14:17:53.468Z,62.63
2022-10-06T14:20:44.852Z,64.11
2022-10-06T14:23:43.351Z,63.36
2022-10-06T14:26:11.291Z,64.52
2022-10-06T14:28:38.144Z,64.31
2022-10-06T14:31:04.933Z,64.29
2022-10-06T14:33:32.899Z,64.12
2022-10-06T14:35:59.672Z,65.17
2022-10-06T14:38:26.234Z,64.34
2022-10-06T14:40:52.796Z,64.60
2022-10-06T14:43:19.365Z,64.37
2022-10-06T14:45:46.119Z,64.42
2022-10-06T14:48:13.681Z,64.42
2022-10-06T14:50:41.961Z,64.38
2022-10-06T14:53:10.416Z,64.63
2022-10-06T14:55:37.360Z,65.17
2022-10-06T14:58:03.911Z,64.31
2022-10-06T15:00:30.488Z,66.06
2022-10-06T15:02:57.162Z,65.12
2022-10-06T15:05:24.064Z,64.25
2022-10-06T15:07:52.025Z,64.59
2022-10-06T15:10:18.674Z,64.36
2022-10-06T15:12:45.271Z,65.37
2022-10-06T15:15:11.836Z,65.86
2022-10-06T15:17:38.446Z,66.42
2022-10-06T15:20:05.751Z,65.75
2022-10-06T15:22:32.323Z,66.20
2022-10-06T15:25:00.262Z,66.83
2022-10-06T15:27:26.910Z,68.25
2022-10-06T15:29:53.630Z,70.51
2022-10-06T15:32:20.244Z,70.53
2022-10-06T15:34:46.802Z,68.98
2022-10-06T15:37:13.453Z,72.52
2022-10-06T15:39:40.022Z,72.27
2022-10-06T15:42:08.303Z,72.36
2022-10-06T15:44:35.365Z,72.68
2022-10-06T15:47:05.415Z,72.26
2022-10-06T15:49:31.983Z,72.62
2022-10-06T15:51:59.962Z,73.95
2022-10-06T15:54:28.557Z,74.79
2022-10-06T15:56:56.700Z,75.29
2022-10-06T15:59:25.800Z,75.57
2022-10-06T16:01:53.175Z,75.60
2022-10-06T16:04:22.447Z,76.58
2022-10-06T16:06:49.167Z,76.62
2022-10-06T16:09:17.720Z,78.08
2022-10-06T16:11:45.074Z,78.56
2022-10-06T16:14:11.666Z,79.04
2022-10-06T16:16:43.494Z,78.52
2022-10-06T16:19:10.838Z,79.86
2022-10-06T16:21:37.493Z,81.20
2022-10-06T16:24:04.219Z,82.19
2022-10-06T16:26:30.870Z,82.79
2022-10-06T16:28:57.663Z,82.15
2022-10-06T16:31:24.625Z,83.12
2022-10-06T16:33:52.898Z,83.92
2022-10-06T16:36:19.987Z,84.67
2022-10-06T16:38:50.009Z,85.61
2022-10-06T16:41:16.960Z,85.99
2022-10-06T16:43:45.590Z,86.21
2022-10-06T16:46:14.680Z,86.63
2022-10-06T16:48:43.666Z,87.38
2022-10-06T16:51:13.797Z,87.08
2022-10-06T16:53:41.741Z,87.43
2022-10-06T16:56:11.231Z,88.27
2022-10-06T16:58:39.478Z,90.03
2022-10-06T17:01:06.339Z,90.13
2022-10-06T17:03:33.071Z,89.73
2022-10-06T17:06:04.862Z,89.80
2022-10-06T17:08:32.854Z,89.79
2022-10-06T17:11:05.073Z,90.71
2022-10-06T17:13:32.012Z,90.46
2022-10-06T17:16:01.566Z,90.23
2022-10-06T17:18:28.202Z,90.46
2022-10-06T17:20:56.480Z,90.37
2022-10-06T17:23:23.168Z,91.13
2022-10-06T17:26:12.397Z,91.46
2022-10-06T17:28:39.027Z,91.80
2022-10-06T17:31:06.031Z,92.10
2022-10-06T17:33:35.016Z,92.23
2022-10-06T17:36:06.787Z,92.31
2022-10-06T17:38:34.417Z,92.80
2022-10-06T17:41:02.968Z,92.51
2022-10-06T17:43:29.526Z,93.13
2022-10-06T17:45:56.253Z,92.93
2022-10-06T17:48:25.962Z,93.21
2022-10-06T17:50:59.172Z,93.07
2022-10-06T17:53:25.815Z,93.55
2022-10-06T17:55:52.563Z,93.77
2022-10-06T17:58:20.498Z,93.63
2022-10-06T18:00:47.117Z,94.19
2022-10-06T18:03:13.794Z,94.51
2022-10-06T18:05:40.359Z,94.74
2022-10-06T18:08:09.644Z,94.91
2022-10-06T18:10:36.180Z,94.72
2022-10-06T18:13:02.770Z,94.82
2022-10-06T18:15:34.819Z,95.16
2022-10-06T18:18:01.398Z,95.38
2022-10-06T18:20:27.971Z,95.30
2022-10-06T18:22:54.532Z,95.30
2022-10-06T18:25:26.526Z,95.29
2022-10-06T18:27:53.440Z,95.52
2022-10-06T18:30:20.016Z,95.42
2022-10-06T18:38:21.021Z,95.04
2022-10-06T18:40:54.084Z,95.33
2022-10-06T18:43:20.769Z,95.45
2022-10-06T18:45:47.509Z,95.16
2022-10-06T18:48:15.488Z,94.98
2022-10-06T18:50:42.066Z,94.06
2022-10-06T18:53:08.602Z,93.45
2022-10-06T18:55:35.275Z,92.92
2022-10-06T18:58:02.100Z,92.51
2022-10-06T19:00:28.746Z,92.28
2022-10-06T19:02:55.328Z,92.97
2022-10-06T19:05:23.547Z,93.31
2022-10-06T19:07:52.770Z,93.42
2022-10-06T19:10:19.342Z,93.17
2022-10-06T19:12:45.878Z,92.54
2022-10-06T19:15:15.381Z,91.69
2022-10-06T19:17:44.799Z,91.46
2022-10-06T19:20:12.319Z,91.50
2022-10-06T19:22:40.253Z,91.79
2022-10-06T19:25:07.401Z,91.76
2022-10-06T19:27:35.858Z,91.93
2022-10-06T19:30:02.420Z,91.87
2022-10-06T19:32:30.903Z,91.68
2022-10-06T19:34:57.481Z,91.90
2022-10-06T19:37:24.283Z,91.94
2022-10-06T19:39:52.473Z,91.56
2022-10-06T19:42:19.690Z,91.25
2022-10-06T19:44:46.312Z,91.35
2022-10-06T19:47:14.912Z,92.40
2022-10-06T19:49:42.523Z,92.62
2022-10-06T19:52:10.853Z,92.82
2022-10-06T19:54:37.418Z,92.48
2022-10-06T19:57:05.934Z,92.48
2022-10-06T19:59:33.100Z,91.61
2022-10-06T20:01:59.661Z,93.14
2022-10-06T20:04:26.311Z,92.93
2022-10-06T20:06:53.198Z,93.34
2022-10-06T20:09:21.555Z,93.13
2022-10-06T20:11:49.696Z,93.11
2022-10-06T20:14:20.952Z,93.05
2022-10-06T20:16:49.167Z,92.95
2022-10-06T20:19:15.957Z,93.33
2022-10-06T20:21:42.698Z,93.92
2022-10-06T20:24:12.643Z,93.88
2022-10-06T20:26:41.134Z,93.93
2022-10-06T20:29:10.105Z,93.96
2022-10-06T20:31:39.880Z,93.66
2022-10-06T20:34:09.285Z,93.95
2022-10-06T20:36:36.823Z,94.87
2022-10-06T20:39:04.068Z,94.74
2022-10-06T20:41:31.243Z,94.54
2022-10-06T20:43:58.489Z,94.04
2022-10-06T20:46:26.262Z,93.30
2022-10-06T20:48:54.190Z,94.05
2022-10-06T20:51:25.471Z,94.17
2022-10-06T20:53:54.183Z,94.11
2022-10-06T20:56:20.738Z,93.73
2022-10-06T20:58:47.288Z,93.68
2022-10-06T21:01:14.311Z,93.18
2022-10-06T21:03:45.264Z,92.44
2022-10-06T21:06:13.751Z,92.40
2022-10-06T21:08:41.065Z,92.31
2022-10-06T21:11:07.807Z,91.95
2022-10-06T21:13:34.521Z,91.70
2022-10-06T21:16:01.762Z,91.84
2022-10-06T21:18:28.658Z,92.30
2022-10-06T21:20:55.869Z,92.10
2022-10-06T21:23:23.961Z,92.19
2022-10-06T21:25:50.667Z,92.02
2022-10-06T21:28:17.454Z,92.35
2022-10-06T21:30:44.761Z,92.34
2022-10-06T21:33:11.708Z,92.02
2022-10-06T21:35:38.491Z,91.58
2022-10-06T21:38:05.214Z,91.91
2022-10-06T21:40:35.617Z,92.31
2022-10-06T21:43:02.349Z,92.84
2022-10-06T21:45:32.918Z,92.46
2022-10-06T21:47:59.918Z,92.03
2022-10-06T21:50:26.633Z,91.79
2022-10-06T21:52:53.332Z,92.55
2022-10-06T21:55:20.033Z,92.36
2022-10-06T21:57:48.176Z,91.84
2022-10-06T22:00:15.160Z,91.84
2022-10-06T22:02:41.926Z,91.57
2022-10-06T22:05:09.040Z,91.27
2022-10-06T22:07:35.834Z,91.25
2022-10-06T22:10:02.609Z,91.17
2022-10-06T22:12:29.481Z,91.72
2022-10-06T22:14:57.623Z,91.35
2022-10-06T22:17:24.459Z,91.22
2022-10-06T22:19:51.169Z,90.99
2022-10-06T22:22:17.947Z,90.67
2022-10-06T22:24:44.671Z,90.86
2022-10-06T22:27:11.376Z,90.59
2022-10-06T22:29:38.073Z,90.65
2022-10-06T22:32:06.154Z,90.73
2022-10-06T22:34:32.848Z,91.01
2022-10-06T22:36:59.572Z,91.05
2022-10-06T22:39:26.663Z,91.36
2022-10-06T22:41:53.409Z,91.08
2022-10-06T22:44:20.108Z,90.81
2022-10-06T22:46:46.966Z,90.80
2022-10-06T22:49:15.149Z,91.28
2022-10-06T22:51:41.964Z,92.09
2022-10-06T22:54:15.710Z,92.07
2022-10-06T22:56:42.444Z,91.62
2022-10-06T22:59:09.153Z,91.59
2022-10-06T23:01:35.882Z,91.07
2022-10-06T23:04:02.584Z,90.83
2022-10-06T23:06:30.690Z,90.85
2022-10-06T23:08:57.623Z,90.91
2022-10-06T23:11:24.363Z,91.06
2022-10-06T23:13:51.092Z,91.03
2022-10-06T23:16:19.448Z,90.93
2022-10-06T23:18:47.000Z,90.66
2022-10-06T23:21:15.571Z,90.98
2022-10-06T23:23:43.661Z,91.06
2022-10-06T23:26:12.367Z,91.01
2022-10-06T23:28:39.633Z,90.88
2022-10-06T23:31:08.785Z,91.03
2022-10-06T23:33:35.904Z,90.89
2022-10-06T23:36:04.715Z,90.68
2022-10-06T23:38:31.610Z,90.65
2022-10-06T23:40:59.733Z,90.66
2022-10-06T23:43:26.508Z,90.50
2022-10-06T23:45:53.370Z,90.80
2022-10-06T23:48:20.141Z,91.33
2022-10-06T23:50:55.787Z,91.23
2022-10-06T23:53:22.525Z,90.87
2022-10-06T23:55:49.265Z,90.48
2022-10-06T23:58:17.455Z,90.67
